Time;durP1;ratioP1;P1;durP2;ratioP2;P2;SDS_P1;SDS_P2;PMS_P1;PMS_P2;Temp;Humidity;BMP_temperature;BMP_pressure;BME280_temperature;BME280_humidity;BME280_pressure;Samples;Min_cycle;Max_cycle;Signal;HPM_P1;HPM_P2
2023/07/16 00:01:58;;;;;;;8.50;3.40;;;18.00;99.90;;;;;;5091054;28;20044;-85
2023/07/16 00:04:24;;;;;;;8.80;3.58;;;18.10;99.90;;;;;;5092298;28;20040;-86
2023/07/16 00:06:49;;;;;;;9.05;3.42;;;18.00;99.90;;;;;;5091741;28;20035;-86
2023/07/16 00:09:15;;;;;;;8.65;3.55;;;18.00;99.90;;;;;;5074982;28;20080;-85
2023/07/16 00:11:41;;;;;;;8.70;2.15;;;17.90;99.90;;;;;;5091765;28;20035;-86
2023/07/16 00:14:07;;;;;;;9.32;3.22;;;17.90;99.90;;;;;;5091765;28;20044;-85
2023/07/16 00:16:33;;;;;;;9.82;3.20;;;17.90;99.90;;;;;;5092019;28;20043;-85
2023/07/16 00:18:58;;;;;;;10.38;3.65;;;17.80;99.90;;;;;;5075375;28;20047;-85
2023/07/16 00:21:24;;;;;;;9.38;3.25;;;17.80;99.90;;;;;;5074368;28;20422;-85
2023/07/16 00:23:50;;;;;;;10.50;3.25;;;17.80;99.90;;;;;;5090940;28;20044;-85
2023/07/16 00:26:16;;;;;;;11.80;3.58;;;17.70;99.90;;;;;;5074678;28;20123;-84
2023/07/16 00:28:41;;;;;;;9.18;3.20;;;17.70;99.90;;;;;;5091651;28;20040;-84
2023/07/16 00:31:07;;;;;;;12.73;3.60;;;17.70;99.90;;;;;;5091867;28;20024;-84
2023/07/16 00:33:32;;;;;;;9.30;3.30;;;17.70;99.90;;;;;;5091010;28;20490;-84
2023/07/16 00:35:58;;;;;;;10.10;3.55;;;17.70;99.90;;;;;;5091864;28;20046;-84
2023/07/16 00:38:24;;;;;;;10.60;3.63;;;17.50;99.90;;;;;;5091647;28;20044;-84
2023/07/16 00:40:49;;;;;;;9.65;3.63;;;17.50;99.90;;;;;;5074368;28;20169;-84
2023/07/16 00:43:15;;;;;;;6.43;2.00;;;17.50;99.90;;;;;;5090491;28;20075;-84
2023/07/16 00:45:44;;;;;;;9.15;2.55;;;17.30;99.90;;;;;;5091184;28;20036;-84
2023/07/16 00:48:11;;;;;;;10.05;3.60;;;17.30;99.90;;;;;;5090693;28;20495;-84
2023/07/16 00:50:39;;;;;;;9.07;2.83;;;17.20;99.90;;;;;;5091225;28;20048;-85
2023/07/16 00:53:09;;;;;;;13.02;3.65;;;17.30;99.90;;;;;;5090443;28;20044;-84
2023/07/16 00:55:36;;;;;;;9.55;3.50;;;17.30;99.90;;;;;;5091253;28;20036;-85
2023/07/16 00:58:05;;;;;;;11.38;3.92;;;17.20;99.90;;;;;;5091126;28;20047;-84
2023/07/16 01:00:35;;;;;;;6.50;1.92;;;17.20;99.90;;;;;;5090731;28;20032;-85
2023/07/16 01:03:08;;;;;;;10.18;3.70;;;17.10;99.90;;;;;;5090243;28;20039;-84
2023/07/16 01:05:53;;;;;;;8.98;2.70;;;17.10;99.90;;;;;;5074426;28;20144;-85
2023/07/16 01:08:27;;;;;;;10.93;4.18;;;17.00;99.90;;;;;;5090501;28;20032;-85
2023/07/16 01:10:53;;;;;;;10.10;4.10;;;17.00;99.90;;;;;;5074376;28;20040;-85
2023/07/16 01:13:19;;;;;;;12.98;3.95;;;17.10;99.90;;;;;;5073151;28;20051;-85
2023/07/16 01:15:45;;;;;;;8.88;2.67;;;17.10;99.90;;;;;;5074221;28;20541;-85
2023/07/16 01:18:10;;;;;;;12.50;4.63;;;17.10;99.90;;;;;;5090887;28;20040;-85
2023/07/16 01:20:36;;;;;;;9.68;2.95;;;17.10;99.90;;;;;;5090493;28;20059;-85
2023/07/16 01:23:13;;;;;;;11.43;3.05;;;17.10;99.90;;;;;;5089790;28;20074;-84
2023/07/16 01:25:57;;;;;;;9.68;3.83;;;17.10;99.90;;;;;;5091016;28;20270;-84
2023/07/16 01:28:49;;;;;;;12.10;4.53;;;17.20;99.90;;;;;;5090533;28;20550;-85
2023/07/16 01:31:17;;;;;;;8.90;2.75;;;17.20;99.90;;;;;;5090807;28;20036;-85
2023/07/16 01:33:43;;;;;;;12.63;4.50;;;17.20;99.90;;;;;;5089886;28;20044;-84
2023/07/16 01:36:09;;;;;;;9.77;4.18;;;17.20;99.90;;;;;;5090067;28;20042;-85
2023/07/16 01:38:35;;;;;;;16.77;4.28;;;17.20;99.90;;;;;;5073752;28;20040;-85
2023/07/16 01:41:01;;;;;;;8.23;3.10;;;17.20;99.90;;;;;;5089949;28;20051;-84
2023/07/16 01:43:27;;;;;;;10.70;4.35;;;17.20;99.90;;;;;;5089331;28;20410;-84
2023/07/16 01:45:52;;;;;;;9.27;3.03;;;17.20;99.90;;;;;;5073751;28;20035;-84
2023/07/16 01:48:33;;;;;;;12.02;4.20;;;17.20;99.90;;;;;;5090100;28;20071;-85
2023/07/16 01:50:59;;;;;;;10.52;4.00;;;17.20;99.90;;;;;;5073513;28;20043;-85
2023/07/16 01:53:24;;;;;;;11.35;4.43;;;17.20;99.90;;;;;;5089733;28;20572;-85
2023/07/16 01:55:50;;;;;;;10.10;4.30;;;17.20;99.90;;;;;;5091339;28;20036;-85
2023/07/16 01:58:16;;;;;;;10.38;3.97;;;17.30;99.90;;;;;;5091546;28;20036;-85
2023/07/16 02:00:43;;;;;;;10.73;3.90;;;17.30;99.90;;;;;;5073266;28;20487;-85
2023/07/16 02:03:08;;;;;;;11.00;2.90;;;17.30;99.90;;;;;;5089204;28;20039;-85
2023/07/16 02:05:34;;;;;;;11.75;4.53;;;17.20;99.90;;;;;;5073313;28;20040;-85
2023/07/16 02:08:00;;;;;;;10.68;4.22;;;17.20;99.90;;;;;;5089008;28;20040;-85
2023/07/16 02:10:26;;;;;;;11.27;4.15;;;17.20;99.90;;;;;;5090174;28;20079;-85
2023/07/16 02:12:51;;;;;;;11.63;4.50;;;17.20;99.90;;;;;;5089396;28;20028;-85
2023/07/16 02:15:17;;;;;;;12.18;3.97;;;17.20;99.90;;;;;;5089876;28;20040;-85
2023/07/16 02:17:44;;;;;;;10.13;3.08;;;17.20;99.90;;;;;;5090127;28;20048;-85
2023/07/16 02:20:10;;;;;;;10.73;3.97;;;17.10;99.90;;;;;;5090061;28;20123;-85
2023/07/16 02:22:36;;;;;;;9.68;3.72;;;17.00;99.90;;;;;;5090358;28;20467;-85
2023/07/16 02:25:02;;;;;;;11.82;4.20;;;17.00;99.90;;;;;;5089878;28;20071;-85
2023/07/16 02:27:28;;;;;;;12.57;4.00;;;17.00;99.90;;;;;;5089757;28;20032;-84
2023/07/16 02:29:53;;;;;;;11.20;4.00;;;17.00;99.90;;;;;;5089639;28;20040;-85
2023/07/16 02:32:19;;;;;;;12.60;4.18;;;16.90;99.90;;;;;;5090758;28;20068;-85
2023/07/16 02:34:44;;;;;;;14.38;2.83;;;16.90;99.90;;;;;;5089484;28;20036;-85
2023/07/16 02:37:10;;;;;;;11.35;3.00;;;16.80;99.90;;;;;;5089700;28;20096;-85
2023/07/16 02:39:35;;;;;;;10.93;4.00;;;16.70;99.90;;;;;;5091194;28;20431;-85
2023/07/16 02:42:01;;;;;;;10.80;2.75;;;16.80;99.90;;;;;;5072010;28;20123;-85
2023/07/16 02:44:27;;;;;;;10.82;2.85;;;16.70;99.90;;;;;;5089374;28;20040;-85
2023/07/16 02:46:52;;;;;;;11.98;4.05;;;16.70;99.90;;;;;;5089870;28;20036;-85
2023/07/16 02:49:18;;;;;;;12.00;4.72;;;16.70;99.90;;;;;;5089846;28;20499;-85
2023/07/16 02:51:43;;;;;;;7.82;3.25;;;16.80;99.90;;;;;;5072725;28;20523;-85
2023/07/16 02:54:09;;;;;;;10.55;4.53;;;16.80;99.90;;;;;;5089638;28;20414;-85
2023/07/16 02:56:35;;;;;;;11.27;4.80;;;16.90;99.90;;;;;;5089582;28;20040;-85
2023/07/16 02:59:00;;;;;;;10.93;5.00;;;16.90;99.90;;;;;;5089611;28;20123;-85
2023/07/16 03:01:26;;;;;;;13.98;3.83;;;16.90;99.90;;;;;;5089433;28;20043;-85
2023/07/16 03:03:51;;;;;;;12.65;4.72;;;16.80;99.90;;;;;;5088848;28;20062;-85
2023/07/16 03:06:17;;;;;;;12.60;5.15;;;16.80;99.90;;;;;;5073087;28;20032;-85
2023/07/16 03:08:45;;;;;;;11.50;4.80;;;16.70;99.90;;;;;;5090253;28;20525;-85
2023/07/16 03:11:11;;;;;;;13.25;4.80;;;16.70;99.90;;;;;;5072758;28;20040;-85
2023/07/16 03:13:36;;;;;;;13.85;4.50;;;16.70;99.90;;;;;;5089008;28;20032;-85
2023/07/16 03:16:02;;;;;;;12.25;4.53;;;16.70;99.90;;;;;;5089341;28;20402;-85
2023/07/16 03:18:29;;;;;;;10.82;4.35;;;16.60;99.90;;;;;;5072688;28;20050;-85
2023/07/16 03:20:54;;;;;;;12.57;4.45;;;16.60;99.90;;;;;;5076061;28;20089;-85
2023/07/16 03:23:20;;;;;;;11.23;4.10;;;16.60;99.90;;;;;;5092151;28;20039;-85
2023/07/16 03:25:46;;;;;;;13.30;4.53;;;16.60;99.90;;;;;;5075713;28;20141;-85
2023/07/16 03:28:11;;;;;;;11.82;4.78;;;16.60;99.90;;;;;;5092713;28;20032;-85
2023/07/16 03:30:37;;;;;;;9.75;2.50;;;16.60;99.90;;;;;;5093235;28;20040;-85
2023/07/16 03:33:04;;;;;;;11.93;4.85;;;16.60;99.90;;;;;;5092488;28;20379;-85
2023/07/16 03:35:30;;;;;;;17.40;5.13;;;16.60;99.90;;;;;;5092555;28;20044;-85
2023/07/16 03:37:56;;;;;;;13.00;4.43;;;16.70;99.90;;;;;;5092803;28;20546;-85
2023/07/16 03:40:26;;;;;;;15.77;5.53;;;16.70;99.90;;;;;;5092540;28;20043;-85
2023/07/16 03:42:52;;;;;;;11.10;4.70;;;16.60;99.90;;;;;;5091247;28;20498;-85
2023/07/16 03:45:18;;;;;;;11.00;4.78;;;16.60;99.90;;;;;;5092513;28;20040;-85
2023/07/16 03:47:44;;;;;;;13.05;5.10;;;16.60;99.90;;;;;;5075380;28;20036;-85
2023/07/16 03:50:09;;;;;;;12.25;5.00;;;16.60;99.90;;;;;;5076058;28;20062;-85
2023/07/16 03:52:35;;;;;;;18.17;3.50;;;16.60;99.90;;;;;;5091970;28;20039;-85
2023/07/16 03:55:01;;;;;;;16.27;5.45;;;16.50;99.90;;;;;;5075043;28;20044;-85
2023/07/16 03:57:30;;;;;;;12.30;4.82;;;16.50;99.90;;;;;;5092320;28;20039;-85
2023/07/16 03:59:56;;;;;;;14.57;5.50;;;16.50;99.90;;;;;;5092377;28;20105;-84
2023/07/16 04:02:22;;;;;;;12.45;3.17;;;16.60;99.90;;;;;;5091165;28;20047;-85
2023/07/16 04:04:47;;;;;;;10.65;5.22;;;16.50;99.90;;;;;;5092208;28;20040;-85
2023/07/16 04:07:13;;;;;;;10.55;3.45;;;16.50;99.90;;;;;;5091914;28;20032;-85
2023/07/16 04:09:39;;;;;;;14.25;5.40;;;16.50;99.90;;;;;;5092167;28;20036;-85
2023/07/16 04:12:06;;;;;;;13.35;4.70;;;16.50;99.90;;;;;;5091724;28;20036;-84
2023/07/16 04:14:32;;;;;;;9.57;2.72;;;16.60;99.90;;;;;;5091855;28;20394;-85
2023/07/16 04:16:57;;;;;;;11.80;4.85;;;16.60;99.90;;;;;;5091949;28;20503;-85
2023/07/16 04:19:23;;;;;;;12.38;4.93;;;16.50;99.90;;;;;;5075297;28;20047;-85
2023/07/16 04:21:49;;;;;;;13.45;5.07;;;16.60;99.90;;;;;;5091379;28;20127;-85
2023/07/16 04:24:14;;;;;;;11.07;4.72;;;16.60;99.90;;;;;;5091210;28;20044;-85
2023/07/16 04:26:40;;;;;;;13.95;5.15;;;16.60;99.90;;;;;;5091799;28;20521;-84
2023/07/16 04:29:05;;;;;;;15.40;4.65;;;16.60;99.90;;;;;;5091510;28;20040;-85
2023/07/16 04:31:31;;;;;;;10.98;3.15;;;16.60;99.90;;;;;;5074792;28;20032;-85
2023/07/16 04:33:57;;;;;;;13.48;4.60;;;16.60;99.90;;;;;;5090978;28;20491;-85
2023/07/16 04:36:22;;;;;;;13.18;4.57;;;16.60;99.90;;;;;;5074669;28;20097;-85
2023/07/16 04:38:48;;;;;;;10.75;3.20;;;16.70;99.90;;;;;;5091710;28;20118;-85
2023/07/16 04:41:13;;;;;;;11.63;4.50;;;16.70;99.90;;;;;;5091472;28;20047;-85
2023/07/16 04:43:39;;;;;;;10.88;3.30;;;16.70;99.90;;;;;;5073460;28;20039;-85
2023/07/16 04:46:05;;;;;;;13.45;4.72;;;16.70;99.90;;;;;;5091436;28;20124;-85
2023/07/16 04:48:31;;;;;;;10.73;4.78;;;16.70;99.90;;;;;;5091533;28;20512;-85
2023/07/16 04:50:56;;;;;;;10.82;3.53;;;16.80;99.90;;;;;;5091193;28;20471;-85
2023/07/16 04:53:22;;;;;;;12.48;4.43;;;16.80;99.90;;;;;;5090596;28;20040;-85
2023/07/16 04:55:49;;;;;;;11.82;4.88;;;16.80;99.90;;;;;;5091365;28;20406;-85
2023/07/16 04:58:15;;;;;;;13.10;4.45;;;16.80;99.90;;;;;;5091208;28;20115;-85
2023/07/16 05:00:41;;;;;;;11.18;4.38;;;16.90;99.90;;;;;;5091219;28;20032;-85
2023/07/16 05:03:07;;;;;;;9.98;3.53;;;16.90;99.90;;;;;;5073072;28;20039;-85
2023/07/16 05:05:32;;;;;;;10.82;4.40;;;16.90;99.90;;;;;;5091439;28;20036;-85
2023/07/16 05:07:58;;;;;;;9.32;2.97;;;17.00;99.90;;;;;;5090515;28;20410;-85
2023/07/16 05:10:24;;;;;;;10.45;2.80;;;17.00;99.90;;;;;;5074160;28;20388;-85
2023/07/16 05:12:49;;;;;;;11.43;4.53;;;17.00;99.90;;;;;;5073085;28;20036;-85
2023/07/16 05:15:15;;;;;;;11.82;4.47;;;17.00;99.90;;;;;;5073624;28;20036;-85
2023/07/16 05:17:41;;;;;;;10.02;4.40;;;17.10;99.90;;;;;;5090758;28;20035;-84
2023/07/16 05:20:07;;;;;;;8.15;3.15;;;17.10;99.90;;;;;;5090898;28;20178;-85
2023/07/16 05:22:33;;;;;;;10.20;4.00;;;17.20;99.90;;;;;;5089529;28;20402;-85
2023/07/16 05:24:59;;;;;;;11.45;4.55;;;17.20;99.90;;;;;;5090380;28;20032;-85
2023/07/16 05:27:24;;;;;;;12.43;4.93;;;17.20;99.90;;;;;;5090850;28;20487;-85
2023/07/16 05:29:50;;;;;;;14.88;4.55;;;17.30;99.90;;;;;;5090432;28;20044;-85
2023/07/16 05:32:16;;;;;;;11.25;4.60;;;17.30;99.90;;;;;;5090162;28;20086;-85
2023/07/16 05:34:41;;;;;;;9.30;3.95;;;17.30;99.90;;;;;;5090288;28;20093;-85
2023/07/16 05:37:07;;;;;;;10.45;4.47;;;17.40;99.90;;;;;;5090402;28;20039;-85
2023/07/16 05:39:32;;;;;;;8.63;2.95;;;17.40;99.90;;;;;;5074082;28;20039;-85
2023/07/16 05:41:58;;;;;;;12.20;4.70;;;17.40;99.90;;;;;;5088877;28;20502;-85
2023/07/16 05:44:24;;;;;;;9.93;4.28;;;17.40;99.90;;;;;;5090022;28;20153;-85
2023/07/16 05:46:49;;;;;;;9.00;3.58;;;17.50;99.90;;;;;;5090170;28;20048;-85
2023/07/16 05:49:15;;;;;;;11.18;4.55;;;17.50;99.90;;;;;;5073377;28;20032;-85
2023/07/16 05:51:41;;;;;;;11.07;4.95;;;17.50;99.90;;;;;;5073042;28;20047;-85
2023/07/16 05:54:06;;;;;;;11.45;4.20;;;17.60;99.90;;;;;;5090027;28;20079;-85
2023/07/16 05:56:32;;;;;;;14.50;5.90;;;17.60;99.90;;;;;;5073283;28;20036;-85
2023/07/16 05:58:58;;;;;;;12.32;5.55;;;17.60;99.90;;;;;;5090200;28;20056;-85
2023/07/16 06:01:23;;;;;;;11.43;6.13;;;17.60;99.90;;;;;;5090340;28;20178;-85
2023/07/16 06:03:49;;;;;;;9.90;3.78;;;17.70;99.90;;;;;;5072203;28;20036;-84
2023/07/16 06:06:15;;;;;;;11.95;5.30;;;17.70;99.90;;;;;;5090602;28;20390;-85
2023/07/16 06:08:40;;;;;;;13.93;5.82;;;17.70;99.90;;;;;;5089616;28;20486;-85
2023/07/16 06:11:06;;;;;;;10.02;3.00;;;17.80;99.90;;;;;;5090093;28;20036;-85
2023/07/16 06:13:31;;;;;;;13.18;5.05;;;17.70;99.90;;;;;;5089461;28;20072;-85
2023/07/16 06:15:57;;;;;;;11.55;4.93;;;17.80;99.90;;;;;;5073289;28;20039;-86
2023/07/16 06:18:23;;;;;;;13.57;5.22;;;17.80;99.90;;;;;;5089961;28;20036;-86
2023/07/16 06:20:50;;;;;;;11.80;4.88;;;17.90;99.90;;;;;;5078191;28;20397;-83
2023/07/16 06:23:16;;;;;;;9.93;4.75;;;17.90;99.90;;;;;;5084317;28;20128;-83
2023/07/16 06:25:46;;;;;;;12.32;5.30;;;18.00;99.90;;;;;;5091035;28;20119;-85
2023/07/16 06:28:12;;;;;;;11.48;5.45;;;18.00;99.90;;;;;;5074667;28;20077;-85
2023/07/16 06:30:38;;;;;;;13.45;5.20;;;18.00;99.90;;;;;;5091356;28;20036;-86
2023/07/16 06:33:28;;;;;;;12.63;4.72;;;18.10;99.90;;;;;;5087907;28;20036;-86
2023/07/16 06:35:54;;;;;;;12.32;5.18;;;18.10;99.90;;;;;;5011304;28;20085;-86
2023/07/16 06:38:20;;;;;;;8.32;2.85;;;18.10;99.90;;;;;;5029506;28;20091;-86
2023/07/16 06:40:47;;;;;;;9.13;3.63;;;18.10;99.90;;;;;;5029407;28;20523;-86
2023/07/16 06:43:12;;;;;;;10.63;5.40;;;18.20;99.90;;;;;;5028484;28;20480;-86
2023/07/16 06:45:38;;;;;;;12.80;5.80;;;18.20;99.90;;;;;;5028394;28;20120;-86
2023/07/16 06:48:04;;;;;;;11.48;5.38;;;18.30;99.90;;;;;;4995753;28;20049;-86
2023/07/16 06:50:30;;;;;;;10.88;5.72;;;18.40;99.90;;;;;;5012153;28;20037;-86
2023/07/16 06:52:55;;;;;;;11.60;5.63;;;18.30;99.90;;;;;;5028316;28;20057;-85
2023/07/16 06:55:21;;;;;;;14.88;5.40;;;18.30;99.90;;;;;;5015452;28;20132;-85
2023/07/16 06:57:46;;;;;;;13.35;5.22;;;18.40;99.90;;;;;;5032144;28;20045;-85
2023/07/16 07:00:12;;;;;;;9.18;3.00;;;18.40;99.90;;;;;;5015599;28;20054;-86
2023/07/16 07:02:38;;;;;;;11.18;5.05;;;18.40;99.90;;;;;;4998477;28;20088;-86
2023/07/16 07:05:04;;;;;;;11.80;6.03;;;18.50;99.90;;;;;;5015388;28;20416;-86
2023/07/16 07:07:30;;;;;;;12.00;5.68;;;18.50;99.90;;;;;;5014598;28;20535;-86
2023/07/16 07:09:55;;;;;;;11.90;5.47;;;18.50;99.90;;;;;;4999123;28;20038;-86
2023/07/16 07:12:21;;;;;;;12.02;5.68;;;18.60;99.90;;;;;;5027768;28;20080;-86
2023/07/16 07:14:47;;;;;;;11.75;5.75;;;18.60;99.90;;;;;;5073028;28;20518;-86
2023/07/16 07:17:13;;;;;;;12.27;5.82;;;18.70;99.90;;;;;;5073036;28;20047;-86
2023/07/16 07:19:39;;;;;;;11.95;5.30;;;18.80;99.90;;;;;;5072928;28;20036;-86
2023/07/16 07:22:05;;;;;;;12.23;5.90;;;18.80;99.90;;;;;;5055641;28;20105;-86
2023/07/16 07:24:30;;;;;;;12.13;5.57;;;18.90;99.90;;;;;;5072263;28;20048;-86
2023/07/16 07:26:56;;;;;;;14.00;5.45;;;18.90;99.90;;;;;;5073092;28;20086;-86
2023/07/16 07:29:21;;;;;;;12.77;3.53;;;18.90;99.90;;;;;;5072707;28;20124;-86
2023/07/16 07:31:47;;;;;;;12.23;5.50;;;18.90;99.90;;;;;;5056038;28;20031;-86
2023/07/16 07:34:12;;;;;;;13.00;5.80;;;18.90;99.90;;;;;;5072257;28;20545;-86
2023/07/16 07:36:38;;;;;;;10.52;5.70;;;19.00;99.90;;;;;;5055754;28;20040;-87
2023/07/16 07:39:04;;;;;;;12.10;5.22;;;19.10;99.90;;;;;;5075999;28;20083;-86
2023/07/16 07:41:29;;;;;;;11.85;5.32;;;19.10;99.90;;;;;;5087528;28;20043;-87
2023/07/16 07:43:55;;;;;;;12.63;5.70;;;19.20;99.90;;;;;;5092035;28;20058;-87
2023/07/16 07:46:20;;;;;;;10.13;5.13;;;19.20;99.90;;;;;;5075528;28;20410;-86
2023/07/16 07:48:46;;;;;;;13.50;5.80;;;19.20;99.90;;;;;;5073725;28;20048;-86
2023/07/16 07:51:11;;;;;;;13.35;5.10;;;19.30;99.90;;;;;;5081611;28;20032;-86
2023/07/16 07:53:37;;;;;;;10.77;5.18;;;19.30;99.90;;;;;;5074405;28;20041;-86
2023/07/16 07:56:03;;;;;;;10.70;5.38;;;19.30;99.90;;;;;;5055447;28;20043;-86
2023/07/16 07:58:28;;;;;;;12.88;5.40;;;19.30;99.90;;;;;;5055485;28;20038;-86
2023/07/16 08:00:54;;;;;;;10.98;5.25;;;19.30;99.90;;;;;;5072405;28;20037;-86
2023/07/16 08:03:20;;;;;;;14.30;5.70;;;19.30;99.90;;;;;;5074986;28;20032;-86
2023/07/16 08:05:49;;;;;;;10.30;5.20;;;19.40;99.90;;;;;;5082280;28;20036;-86
2023/07/16 08:08:19;;;;;;;13.25;5.38;;;19.50;99.90;;;;;;5080438;28;20036;-86
2023/07/16 08:10:48;;;;;;;12.95;5.38;;;19.60;99.90;;;;;;5081781;28;20040;-86
2023/07/16 08:13:14;;;;;;;12.27;5.22;;;19.60;99.90;;;;;;5082245;28;20089;-86
2023/07/16 08:15:39;;;;;;;13.32;5.47;;;19.70;99.90;;;;;;5080262;28;20097;-86
2023/07/16 08:18:05;;;;;;;9.25;4.70;;;19.80;99.90;;;;;;5081862;28;20047;-87
2023/07/16 08:20:30;;;;;;;11.85;5.57;;;19.80;99.90;;;;;;5065678;28;20410;-86
2023/07/16 08:22:56;;;;;;;11.75;5.50;;;19.80;99.90;;;;;;5063236;28;20097;-87
2023/07/16 08:25:22;;;;;;;11.02;4.80;;;19.80;99.90;;;;;;5081527;28;20040;-86
2023/07/16 08:27:47;;;;;;;11.38;4.97;;;19.80;99.90;;;;;;5064906;28;20733;-86
2023/07/16 08:30:16;;;;;;;11.35;5.38;;;19.90;99.90;;;;;;5082824;28;20043;-87
2023/07/16 08:32:42;;;;;;;12.93;5.60;;;19.90;99.90;;;;;;5064828;28;20028;-86
2023/07/16 08:35:12;;;;;;;10.85;4.78;;;19.90;99.90;;;;;;5078982;28;20052;-86
2023/07/16 08:37:37;;;;;;;10.32;4.97;;;20.00;99.90;;;;;;5071666;28;20037;-86
2023/07/16 08:40:03;;;;;;;12.30;5.50;;;19.90;99.90;;;;;;5071129;28;20173;-86
2023/07/16 08:42:29;;;;;;;13.38;5.00;;;19.90;99.90;;;;;;5070218;28;20076;-86
2023/07/16 08:44:55;;;;;;;11.77;5.75;;;19.80;99.90;;;;;;5069892;28;20491;-86
2023/07/16 08:47:21;;;;;;;10.85;5.40;;;19.70;99.90;;;;;;5074928;28;20034;-86
2023/07/16 08:49:56;;;;;;;11.95;5.40;;;19.60;99.90;;;;;;5080833;28;20036;-87
2023/07/16 08:52:22;;;;;;;16.27;5.88;;;19.60;99.90;;;;;;5081294;28;20028;-86
2023/07/16 08:54:47;;;;;;;12.05;5.65;;;19.50;99.90;;;;;;5064434;28;20036;-87
2023/07/16 08:57:14;;;;;;;12.63;5.40;;;19.50;99.90;;;;;;5072510;28;20510;-86
2023/07/16 08:59:40;;;;;;;13.15;5.40;;;19.40;99.90;;;;;;5086188;28;20040;-86
2023/07/16 09:02:06;;;;;;;10.52;5.82;;;19.40;99.90;;;;;;5086535;28;20548;-86
2023/07/16 09:04:32;;;;;;;11.63;5.85;;;19.40;99.90;;;;;;5086046;28;20044;-86
2023/07/16 09:06:58;;;;;;;11.60;5.93;;;19.50;99.90;;;;;;5086150;28;20081;-86
2023/07/16 09:09:24;;;;;;;13.18;5.38;;;19.50;99.90;;;;;;5086356;28;20028;-86
2023/07/16 09:11:50;;;;;;;12.70;5.95;;;19.60;99.90;;;;;;5086269;28;20746;-86
2023/07/16 09:14:20;;;;;;;11.38;6.47;;;19.70;99.90;;;;;;5085155;28;20552;-86
2023/07/16 09:16:50;;;;;;;11.90;5.57;;;19.90;99.90;;;;;;5061181;28;20043;-86
2023/07/16 09:19:18;;;;;;;11.00;5.90;;;20.10;99.90;;;;;;5082066;28;20039;-86
2023/07/16 09:21:49;;;;;;;11.43;5.45;;;20.20;99.90;;;;;;5062920;28;20048;-86
2023/07/16 09:24:16;;;;;;;12.50;5.88;;;20.20;99.90;;;;;;5061571;28;20533;-86
2023/07/16 09:26:53;;;;;;;12.98;6.40;;;20.30;99.90;;;;;;5087628;28;20647;-86
2023/07/16 09:29:19;;;;;;;14.68;5.95;;;20.30;99.90;;;;;;5084769;28;20036;-86
2023/07/16 09:32:11;;;;;;;13.13;5.53;;;20.20;99.90;;;;;;5081757;28;20040;-86
2023/07/16 09:34:37;;;;;;;14.40;6.00;;;20.20;99.90;;;;;;5078920;28;20051;-86
2023/07/16 09:37:04;;;;;;;12.65;6.32;;;20.20;99.90;;;;;;5080586;28;20036;-86
2023/07/16 09:39:32;;;;;;;10.63;5.10;;;20.30;99.90;;;;;;5079351;28;20040;-87
2023/07/16 09:41:58;;;;;;;13.32;6.10;;;20.30;99.90;;;;;;5080949;28;20055;-86
2023/07/16 09:44:24;;;;;;;10.52;5.28;;;20.20;99.90;;;;;;5076743;28;20045;-86
2023/07/16 09:46:49;;;;;;;11.38;5.68;;;20.10;99.50;;;;;;5063494;28;20032;-87
2023/07/16 09:49:15;;;;;;;10.27;5.60;;;20.00;99.30;;;;;;5079997;28;20446;-87
2023/07/16 09:51:43;;;;;;;12.18;5.95;;;19.90;99.30;;;;;;5075432;28;20081;-86
2023/07/16 09:54:10;;;;;;;11.73;5.90;;;19.80;99.90;;;;;;5070294;28;20032;-86
2023/07/16 09:56:50;;;;;;;12.18;5.85;;;19.90;99.90;;;;;;5070164;28;20049;-86
2023/07/16 09:59:19;;;;;;;15.25;6.22;;;20.00;99.90;;;;;;5053422;28;20040;-86
2023/07/16 10:01:45;;;;;;;12.02;5.70;;;20.20;99.90;;;;;;5069705;28;20036;-86
2023/07/16 10:04:15;;;;;;;11.65;5.85;;;20.30;99.90;;;;;;5052547;28;20040;-86
2023/07/16 10:06:53;;;;;;;13.50;6.03;;;20.30;98.30;;;;;;5069579;28;20037;-86
2023/07/16 10:09:39;;;;;;;12.88;6.28;;;20.40;99.90;;;;;;5053471;28;20038;-86
2023/07/16 10:12:10;;;;;;;11.35;5.93;;;20.40;99.90;;;;;;5069773;28;20048;-86
2023/07/16 10:14:44;;;;;;;11.00;5.13;;;20.40;99.90;;;;;;5069825;28;20036;-85
2023/07/16 10:17:14;;;;;;;10.88;5.82;;;20.40;98.60;;;;;;5069985;28;20317;-86
2023/07/16 10:19:50;;;;;;;11.82;5.70;;;20.30;98.50;;;;;;5053304;28;20059;-86
2023/07/16 10:22:15;;;;;;;10.80;5.65;;;20.40;99.90;;;;;;5052881;28;20617;-86
2023/07/16 10:24:41;;;;;;;10.27;5.15;;;20.40;99.90;;;;;;5052275;28;20132;-86
2023/07/16 10:27:07;;;;;;;10.82;5.60;;;20.40;99.20;;;;;;5053094;28;20045;-86
2023/07/16 10:29:33;;;;;;;10.75;5.68;;;20.20;99.20;;;;;;5073219;28;20036;-86
2023/07/16 10:31:58;;;;;;;10.88;6.05;;;20.20;98.80;;;;;;5057057;28;20029;-86
2023/07/16 10:34:26;;;;;;;10.68;5.72;;;20.10;98.90;;;;;;5057093;28;20041;-86
2023/07/16 10:36:51;;;;;;;11.68;5.50;;;20.10;99.50;;;;;;5073787;28;20051;-86
2023/07/16 10:39:17;;;;;;;11.52;5.53;;;20.00;99.40;;;;;;5072802;28;20045;-85
2023/07/16 10:41:43;;;;;;;11.73;5.75;;;20.00;98.90;;;;;;5056771;28;20141;-85
2023/07/16 10:44:09;;;;;;;10.80;5.38;;;20.00;98.80;;;;;;5073120;28;20102;-86
2023/07/16 10:46:36;;;;;;;11.85;5.60;;;20.00;99.40;;;;;;5073441;28;20048;-86
2023/07/16 10:49:02;;;;;;;12.57;5.72;;;20.20;99.90;;;;;;5073425;28;20036;-86
2023/07/16 10:51:28;;;;;;;12.02;5.43;;;20.40;99.90;;;;;;5056513;28;20039;-86
2023/07/16 10:53:57;;;;;;;11.73;4.90;;;20.60;99.50;;;;;;5073384;28;20384;-86
2023/07/16 10:56:23;;;;;;;9.85;4.80;;;20.60;98.00;;;;;;5079795;28;20044;-86
2023/07/16 10:58:49;;;;;;;10.60;5.15;;;20.70;98.20;;;;;;5082610;28;20080;-86
2023/07/16 11:01:15;;;;;;;10.23;4.88;;;20.70;98.50;;;;;;5084047;28;20039;-86
2023/07/16 11:03:40;;;;;;;10.48;4.85;;;20.60;97.40;;;;;;5086333;28;20043;-86
2023/07/16 11:06:08;;;;;;;12.88;5.53;;;20.70;97.10;;;;;;5085464;28;20032;-86
2023/07/16 11:08:33;;;;;;;11.43;5.28;;;20.70;97.30;;;;;;5081822;28;20037;-86
2023/07/16 11:10:59;;;;;;;14.68;5.40;;;20.70;97.00;;;;;;5066703;28;20044;-86
2023/07/16 11:13:30;;;;;;;10.80;5.45;;;20.60;96.70;;;;;;5082256;28;20444;-87
2023/07/16 11:15:56;;;;;;;10.82;5.38;;;20.60;96.70;;;;;;5083761;28;20071;-86
2023/07/16 11:18:26;;;;;;;10.70;5.40;;;20.50;97.60;;;;;;5065326;28;20071;-86
2023/07/16 11:20:52;;;;;;;11.68;5.35;;;20.40;97.40;;;;;;5082910;28;20040;-86
2023/07/16 11:23:18;;;;;;;11.98;5.75;;;20.30;97.90;;;;;;5080556;28;20518;-86
2023/07/16 11:25:51;;;;;;;11.15;6.05;;;20.40;97.50;;;;;;5083334;28;20087;-86
2023/07/16 11:28:17;;;;;;;12.45;6.20;;;20.40;98.20;;;;;;5083217;28;20055;-86
2023/07/16 11:30:42;;;;;;;13.60;5.85;;;20.50;99.90;;;;;;5081818;28;20480;-85
2023/07/16 11:33:12;;;;;;;12.65;6.25;;;20.80;99.30;;;;;;5081634;28;20468;-86
2023/07/16 11:35:38;;;;;;;10.23;5.47;;;20.90;97.40;;;;;;5083272;28;20047;-86
2023/07/16 11:38:07;;;;;;;13.48;6.63;;;21.00;96.10;;;;;;5065081;28;20068;-86
2023/07/16 11:40:36;;;;;;;10.77;5.35;;;21.00;97.30;;;;;;5079841;28;20055;-86
2023/07/16 11:43:12;;;;;;;11.20;5.15;;;20.90;96.50;;;;;;5065570;28;20042;-86
2023/07/16 11:45:38;;;;;;;9.98;5.43;;;20.80;95.10;;;;;;5082544;28;20512;-86
2023/07/16 11:48:04;;;;;;;10.82;5.38;;;20.70;94.50;;;;;;5065252;28;20507;-86
2023/07/16 11:50:31;;;;;;;11.52;5.28;;;20.70;95.50;;;;;;5081078;28;20032;-86
2023/07/16 11:53:00;;;;;;;10.15;5.10;;;20.60;94.70;;;;;;5082418;28;20561;-86
2023/07/16 11:55:26;;;;;;;10.57;5.30;;;20.50;94.60;;;;;;5083001;28;20032;-86
2023/07/16 11:57:52;;;;;;;11.35;5.45;;;20.50;95.80;;;;;;5066325;28;20044;-86
2023/07/16 12:00:18;;;;;;;12.05;5.68;;;20.50;96.70;;;;;;5080742;28;20550;-86
2023/07/16 12:02:50;;;;;;;11.35;5.68;;;20.60;97.00;;;;;;5081829;28;20486;-86
2023/07/16 12:05:20;;;;;;;12.35;4.95;;;20.60;96.70;;;;;;5065399;28;20067;-85
2023/07/16 12:07:46;;;;;;;11.13;5.43;;;20.60;96.50;;;;;;5081894;28;20036;-86
2023/07/16 12:10:11;;;;;;;11.73;5.63;;;20.60;97.10;;;;;;5081021;28;20051;-85
2023/07/16 12:12:38;;;;;;;12.02;5.57;;;20.60;97.80;;;;;;5082395;28;20040;-86
2023/07/16 12:15:04;;;;;;;10.95;5.82;;;20.60;97.50;;;;;;5081717;28;20047;-86
2023/07/16 12:17:30;;;;;;;11.90;5.22;;;20.60;99.20;;;;;;5080601;28;20059;-86
2023/07/16 12:19:55;;;;;;;14.48;6.07;;;20.70;98.00;;;;;;5063429;28;20032;-86
2023/07/16 12:22:24;;;;;;;12.52;5.97;;;20.70;97.90;;;;;;5081734;28;20039;-85
2023/07/16 12:24:49;;;;;;;12.60;5.45;;;20.70;98.30;;;;;;5064828;28;20032;-85
2023/07/16 12:27:16;;;;;;;10.35;5.13;;;20.70;98.30;;;;;;5063445;28;20406;-86
2023/07/16 12:29:43;;;;;;;10.73;5.35;;;20.80;98.90;;;;;;5064860;28;20474;-86
2023/07/16 12:32:09;;;;;;;11.00;5.30;;;20.80;97.00;;;;;;5081143;28;20072;-86
2023/07/16 12:34:35;;;;;;;11.32;5.40;;;20.80;96.30;;;;;;5080142;28;20410;-86
2023/07/16 12:37:01;;;;;;;9.70;4.47;;;20.70;95.10;;;;;;5080100;28;20123;-86